sensor_id;sensor_type;location;lat;lon;timestamp;P1;durP1;ratioP1;P2;durP2;ratioP2
1360;SDS011;674;45.552;-122.600;2022-11-20T00:01:35;16.80;;;9.30;;
1360;SDS011;674;45.552;-122.600;2022-11-20T00:04:03;12.52;;;9.68;;
1360;SDS011;674;45.552;-122.600;2022-11-20T00:06:31;13.60;;;9.35;;
1360;SDS011;674;45.552;-122.600;2022-11-20T00:09:00;14.32;;;9.88;;
1360;SDS011;674;45.552;-122.600;2022-11-20T00:11:29;12.25;;;9.38;;
1360;SDS011;674;45.552;-122.600;2022-11-20T00:13:59;16.23;;;8.45;;
1360;SDS011;674;45.552;-122.600;2022-11-20T00:16:30;13.95;;;10.02;;
1360;SDS011;674;45.552;-122.600;2022-11-20T00:19:00;13.07;;;9.65;;
1360;SDS011;674;45.552;-122.600;2022-11-20T00:21:28;13.88;;;9.82;;
1360;SDS011;674;45.552;-122.600;2022-11-20T00:23:57;13.43;;;10.00;;
1360;SDS011;674;45.552;-122.600;2022-11-20T00:26:26;13.52;;;8.95;;
1360;SDS011;674;45.552;-122.600;2022-11-20T00:28:56;13.10;;;8.90;;
1360;SDS011;674;45.552;-122.600;2022-11-20T00:31:26;16.85;;;10.05;;
1360;SDS011;674;45.552;-122.600;2022-11-20T00:33:55;12.70;;;9.65;;
1360;SDS011;674;45.552;-122.600;2022-11-20T00:36:25;14.32;;;9.95;;
1360;SDS011;674;45.552;-122.600;2022-11-20T00:38:58;15.20;;;10.13;;
1360;SDS011;674;45.552;-122.600;2022-11-20T00:41:27;15.90;;;10.57;;
1360;SDS011;674;45.552;-122.600;2022-11-20T00:43:56;13.82;;;9.88;;
1360;SDS011;674;45.552;-122.600;2022-11-20T00:46:26;15.85;;;10.30;;
1360;SDS011;674;45.552;-122.600;2022-11-20T00:48:55;13.13;;;9.75;;
1360;SDS011;674;45.552;-122.600;2022-11-20T00:51:24;13.00;;;9.32;;
1360;SDS011;674;45.552;-122.600;2022-11-20T00:53:55;14.90;;;9.85;;
1360;SDS011;674;45.552;-122.600;2022-11-20T00:56:24;16.75;;;11.40;;
1360;SDS011;674;45.552;-122.600;2022-11-20T00:58:52;38.38;;;23.10;;
1360;SDS011;674;45.552;-122.600;2022-11-20T01:01:22;15.43;;;10.25;;
1360;SDS011;674;45.552;-122.600;2022-11-20T01:03:53;12.40;;;9.27;;
1360;SDS011;674;45.552;-122.600;2022-11-20T01:06:24;13.75;;;10.05;;
1360;SDS011;674;45.552;-122.600;2022-11-20T01:08:58;13.23;;;9.60;;
1360;SDS011;674;45.552;-122.600;2022-11-20T01:11:30;15.77;;;10.27;;
1360;SDS011;674;45.552;-122.600;2022-11-20T01:14:04;16.10;;;10.27;;
1360;SDS011;674;45.552;-122.600;2022-11-20T01:16:35;12.60;;;8.95;;
1360;SDS011;674;45.552;-122.600;2022-11-20T01:19:06;13.68;;;10.10;;
1360;SDS011;674;45.552;-122.600;2022-11-20T01:21:43;13.25;;;10.07;;
1360;SDS011;674;45.552;-122.600;2022-11-20T01:24:14;12.57;;;9.13;;
1360;SDS011;674;45.552;-122.600;2022-11-20T01:26:44;13.52;;;9.90;;
1360;SDS011;674;45.552;-122.600;2022-11-20T01:29:15;14.73;;;9.55;;
1360;SDS011;674;45.552;-122.600;2022-11-20T01:31:51;14.18;;;9.75;;
1360;SDS011;674;45.552;-122.600;2022-11-20T01:34:20;13.40;;;9.80;;
1360;SDS011;674;45.552;-122.600;2022-11-20T01:36:50;15.25;;;9.60;;
1360;SDS011;674;45.552;-122.600;2022-11-20T01:39:24;14.98;;;10.05;;
1360;SDS011;674;45.552;-122.600;2022-11-20T01:41:53;13.20;;;10.57;;
1360;SDS011;674;45.552;-122.600;2022-11-20T01:47:29;15.48;;;9.55;;
1360;SDS011;674;45.552;-122.600;2022-11-20T01:50:17;14.98;;;10.20;;
1360;SDS011;674;45.552;-122.600;2022-11-20T01:53:00;13.25;;;9.68;;
1360;SDS011;674;45.552;-122.600;2022-11-20T01:55:33;16.73;;;10.77;;
1360;SDS011;674;45.552;-122.600;2022-11-20T01:58:05;13.27;;;9.70;;
1360;SDS011;674;45.552;-122.600;2022-11-20T02:00:34;15.70;;;10.73;;
1360;SDS011;674;45.552;-122.600;2022-11-20T02:03:11;15.55;;;10.40;;
1360;SDS011;674;45.552;-122.600;2022-11-20T02:08:20;12.57;;;9.07;;
1360;SDS011;674;45.552;-122.600;2022-11-20T02:10:50;15.90;;;11.75;;
1360;SDS011;674;45.552;-122.600;2022-11-20T02:13:19;13.05;;;10.68;;
1360;SDS011;674;45.552;-122.600;2022-11-20T02:16:08;13.25;;;9.85;;
1360;SDS011;674;45.552;-122.600;2022-11-20T02:18:42;13.30;;;9.43;;
1360;SDS011;674;45.552;-122.600;2022-11-20T02:24:03;15.95;;;10.43;;
1360;SDS011;674;45.552;-122.600;2022-11-20T02:26:39;15.85;;;10.20;;
1360;SDS011;674;45.552;-122.600;2022-11-20T02:29:15;14.00;;;9.55;;
1360;SDS011;674;45.552;-122.600;2022-11-20T02:31:47;12.63;;;9.77;;
1360;SDS011;674;45.552;-122.600;2022-11-20T02:34:15;14.52;;;9.80;;
1360;SDS011;674;45.552;-122.600;2022-11-20T02:36:44;14.90;;;10.27;;
1360;SDS011;674;45.552;-122.600;2022-11-20T02:39:14;14.63;;;10.10;;
1360;SDS011;674;45.552;-122.600;2022-11-20T02:41:44;11.98;;;9.13;;
1360;SDS011;674;45.552;-122.600;2022-11-20T02:44:13;15.40;;;9.88;;
1360;SDS011;674;45.552;-122.600;2022-11-20T02:46:42;14.60;;;10.32;;
1360;SDS011;674;45.552;-122.600;2022-11-20T02:49:10;14.60;;;10.63;;
1360;SDS011;674;45.552;-122.600;2022-11-20T02:51:39;12.77;;;9.38;;
1360;SDS011;674;45.552;-122.600;2022-11-20T02:54:07;12.90;;;8.65;;
1360;SDS011;674;45.552;-122.600;2022-11-20T02:56:37;18.05;;;12.73;;
1360;SDS011;674;45.552;-122.600;2022-11-20T02:59:06;14.00;;;9.70;;
1360;SDS011;674;45.552;-122.600;2022-11-20T03:01:35;12.77;;;9.55;;
1360;SDS011;674;45.552;-122.600;2022-11-20T03:04:04;13.52;;;9.25;;
1360;SDS011;674;45.552;-122.600;2022-11-20T03:06:32;14.98;;;9.60;;
1360;SDS011;674;45.552;-122.600;2022-11-20T03:09:00;16.63;;;11.57;;
1360;SDS011;674;45.552;-122.600;2022-11-20T03:11:29;14.95;;;10.10;;
1360;SDS011;674;45.552;-122.600;2022-11-20T03:13:57;16.92;;;10.10;;
1360;SDS011;674;45.552;-122.600;2022-11-20T03:16:30;15.88;;;10.13;;
1360;SDS011;674;45.552;-122.600;2022-11-20T03:18:59;14.60;;;9.60;;
1360;SDS011;674;45.552;-122.600;2022-11-20T03:21:28;14.25;;;9.10;;
1360;SDS011;674;45.552;-122.600;2022-11-20T03:23:56;14.80;;;10.38;;
1360;SDS011;674;45.552;-122.600;2022-11-20T03:26:25;15.50;;;10.52;;
1360;SDS011;674;45.552;-122.600;2022-11-20T03:28:55;14.70;;;9.27;;
1360;SDS011;674;45.552;-122.600;2022-11-20T03:31:29;16.20;;;9.35;;
1360;SDS011;674;45.552;-122.600;2022-11-20T03:33:59;14.68;;;9.15;;
1360;SDS011;674;45.552;-122.600;2022-11-20T03:36:28;18.20;;;11.68;;
1360;SDS011;674;45.552;-122.600;2022-11-20T03:38:58;14.60;;;9.70;;
1360;SDS011;674;45.552;-122.600;2022-11-20T03:41:27;12.55;;;9.32;;
1360;SDS011;674;45.552;-122.600;2022-11-20T03:43:58;12.63;;;9.80;;
1360;SDS011;674;45.552;-122.600;2022-11-20T03:46:28;14.35;;;10.23;;
1360;SDS011;674;45.552;-122.600;2022-11-20T03:48:58;13.10;;;10.40;;
1360;SDS011;674;45.552;-122.600;2022-11-20T03:51:28;13.57;;;10.18;;
1360;SDS011;674;45.552;-122.600;2022-11-20T03:54:01;13.93;;;10.40;;
1360;SDS011;674;45.552;-122.600;2022-11-20T03:56:32;12.52;;;10.15;;
1360;SDS011;674;45.552;-122.600;2022-11-20T03:59:05;16.02;;;9.63;;
1360;SDS011;674;45.552;-122.600;2022-11-20T04:01:35;13.50;;;9.90;;
1360;SDS011;674;45.552;-122.600;2022-11-20T04:04:04;12.90;;;10.88;;
1360;SDS011;674;45.552;-122.600;2022-11-20T04:06:34;14.82;;;9.88;;
1360;SDS011;674;45.552;-122.600;2022-11-20T04:09:04;15.00;;;10.52;;
1360;SDS011;674;45.552;-122.600;2022-11-20T04:11:35;17.02;;;11.05;;
1360;SDS011;674;45.552;-122.600;2022-11-20T04:14:05;14.02;;;10.90;;
1360;SDS011;674;45.552;-122.600;2022-11-20T04:16:39;12.82;;;9.68;;
1360;SDS011;674;45.552;-122.600;2022-11-20T04:19:11;15.07;;;11.00;;
1360;SDS011;674;45.552;-122.600;2022-11-20T04:21:42;13.35;;;9.70;;
1360;SDS011;674;45.552;-122.600;2022-11-20T04:24:11;15.05;;;9.82;;
1360;SDS011;674;45.552;-122.600;2022-11-20T04:26:39;14.57;;;11.32;;
1360;SDS011;674;45.552;-122.600;2022-11-20T04:29:10;16.42;;;10.35;;
1360;SDS011;674;45.552;-122.600;2022-11-20T04:31:39;13.75;;;10.32;;
1360;SDS011;674;45.552;-122.600;2022-11-20T04:34:07;16.23;;;10.60;;
1360;SDS011;674;45.552;-122.600;2022-11-20T04:36:38;13.18;;;9.93;;
1360;SDS011;674;45.552;-122.600;2022-11-20T04:39:07;16.65;;;11.10;;
1360;SDS011;674;45.552;-122.600;2022-11-20T04:41:39;13.77;;;10.98;;
1360;SDS011;674;45.552;-122.600;2022-11-20T04:44:07;12.32;;;9.75;;
1360;SDS011;674;45.552;-122.600;2022-11-20T04:46:37;16.65;;;11.25;;
1360;SDS011;674;45.552;-122.600;2022-11-20T04:49:07;13.48;;;9.60;;
1360;SDS011;674;45.552;-122.600;2022-11-20T04:51:36;14.85;;;10.77;;
1360;SDS011;674;45.552;-122.600;2022-11-20T04:54:04;13.18;;;9.07;;
1360;SDS011;674;45.552;-122.600;2022-11-20T04:56:33;13.13;;;9.48;;
1360;SDS011;674;45.552;-122.600;2022-11-20T04:59:02;13.77;;;10.18;;
1360;SDS011;674;45.552;-122.600;2022-11-20T05:01:30;13.60;;;9.82;;
1360;SDS011;674;45.552;-122.600;2022-11-20T05:03:59;14.23;;;10.43;;
1360;SDS011;674;45.552;-122.600;2022-11-20T05:06:28;13.38;;;10.10;;
1360;SDS011;674;45.552;-122.600;2022-11-20T05:08:56;12.70;;;10.30;;
1360;SDS011;674;45.552;-122.600;2022-11-20T05:11:25;12.70;;;10.23;;
1360;SDS011;674;45.552;-122.600;2022-11-20T05:13:57;13.32;;;10.20;;
1360;SDS011;674;45.552;-122.600;2022-11-20T05:16:27;13.32;;;10.15;;
1360;SDS011;674;45.552;-122.600;2022-11-20T05:18:55;14.60;;;10.85;;
1360;SDS011;674;45.552;-122.600;2022-11-20T05:21:24;14.52;;;10.13;;
1360;SDS011;674;45.552;-122.600;2022-11-20T05:23:52;13.23;;;10.27;;
1360;SDS011;674;45.552;-122.600;2022-11-20T05:26:21;15.15;;;11.10;;
1360;SDS011;674;45.552;-122.600;2022-11-20T05:28:50;13.93;;;10.60;;
1360;SDS011;674;45.552;-122.600;2022-11-20T05:31:20;15.45;;;11.20;;
1360;SDS011;674;45.552;-122.600;2022-11-20T05:33:54;13.45;;;9.80;;
1360;SDS011;674;45.552;-122.600;2022-11-20T05:36:24;16.48;;;11.43;;
1360;SDS011;674;45.552;-122.600;2022-11-20T05:38:52;14.93;;;10.13;;
1360;SDS011;674;45.552;-122.600;2022-11-20T05:41:27;14.30;;;10.27;;
1360;SDS011;674;45.552;-122.600;2022-11-20T05:43:56;12.60;;;9.52;;
1360;SDS011;674;45.552;-122.600;2022-11-20T05:46:25;21.15;;;9.65;;
1360;SDS011;674;45.552;-122.600;2022-11-20T05:48:55;14.50;;;10.27;;
1360;SDS011;674;45.552;-122.600;2022-11-20T05:51:25;14.73;;;10.77;;
1360;SDS011;674;45.552;-122.600;2022-11-20T05:53:56;14.13;;;10.07;;
1360;SDS011;674;45.552;-122.600;2022-11-20T05:56:25;16.38;;;10.77;;
1360;SDS011;674;45.552;-122.600;2022-11-20T05:58:54;14.50;;;10.25;;
1360;SDS011;674;45.552;-122.600;2022-11-20T06:01:23;13.00;;;9.98;;
1360;SDS011;674;45.552;-122.600;2022-11-20T06:03:53;15.02;;;9.70;;
1360;SDS011;674;45.552;-122.600;2022-11-20T06:06:22;14.32;;;11.50;;
1360;SDS011;674;45.552;-122.600;2022-11-20T06:08:50;14.57;;;10.77;;
1360;SDS011;674;45.552;-122.600;2022-11-20T06:11:19;14.25;;;10.20;;
1360;SDS011;674;45.552;-122.600;2022-11-20T06:13:47;12.50;;;8.80;;
1360;SDS011;674;45.552;-122.600;2022-11-20T06:16:17;14.63;;;10.13;;
1360;SDS011;674;45.552;-122.600;2022-11-20T06:18:47;15.35;;;10.60;;
1360;SDS011;674;45.552;-122.600;2022-11-20T06:21:17;14.90;;;10.73;;
1360;SDS011;674;45.552;-122.600;2022-11-20T06:23:47;14.35;;;10.02;;
1360;SDS011;674;45.552;-122.600;2022-11-20T06:26:18;12.73;;;10.30;;
1360;SDS011;674;45.552;-122.600;2022-11-20T06:28:48;13.23;;;9.88;;
1360;SDS011;674;45.552;-122.600;2022-11-20T06:31:18;14.70;;;10.13;;
1360;SDS011;674;45.552;-122.600;2022-11-20T06:33:48;13.68;;;10.43;;
1360;SDS011;674;45.552;-122.600;2022-11-20T06:36:18;14.73;;;11.20;;
1360;SDS011;674;45.552;-122.600;2022-11-20T06:38:48;17.67;;;11.10;;
1360;SDS011;674;45.552;-122.600;2022-11-20T06:41:18;15.52;;;11.40;;
1360;SDS011;674;45.552;-122.600;2022-11-20T06:43:48;16.00;;;10.80;;
1360;SDS011;674;45.552;-122.600;2022-11-20T06:46:17;15.40;;;11.13;;
1360;SDS011;674;45.552;-122.600;2022-11-20T06:48:47;16.00;;;12.30;;
1360;SDS011;674;45.552;-122.600;2022-11-20T06:51:17;13.32;;;10.23;;
1360;SDS011;674;45.552;-122.600;2022-11-20T06:53:45;13.45;;;10.57;;
1360;SDS011;674;45.552;-122.600;2022-11-20T06:56:14;14.68;;;11.38;;
1360;SDS011;674;45.552;-122.600;2022-11-20T06:58:43;13.63;;;11.15;;
1360;SDS011;674;45.552;-122.600;2022-11-20T07:01:12;13.73;;;10.02;;
1360;SDS011;674;45.552;-122.600;2022-11-20T07:03:42;15.27;;;10.75;;
1360;SDS011;674;45.552;-122.600;2022-11-20T07:06:16;15.52;;;10.43;;
1360;SDS011;674;45.552;-122.600;2022-11-20T07:08:45;13.93;;;11.00;;
1360;SDS011;674;45.552;-122.600;2022-11-20T07:11:14;13.23;;;9.48;;
1360;SDS011;674;45.552;-122.600;2022-11-20T07:13:42;15.65;;;11.38;;
1360;SDS011;674;45.552;-122.600;2022-11-20T07:16:11;16.20;;;10.70;;
1360;SDS011;674;45.552;-122.600;2022-11-20T07:18:39;13.43;;;10.38;;
1360;SDS011;674;45.552;-122.600;2022-11-20T07:21:15;14.23;;;9.88;;
1360;SDS011;674;45.552;-122.600;2022-11-20T07:23:44;20.90;;;13.30;;
1360;SDS011;674;45.552;-122.600;2022-11-20T07:26:12;15.25;;;11.23;;
1360;SDS011;674;45.552;-122.600;2022-11-20T07:28:43;16.95;;;12.20;;
1360;SDS011;674;45.552;-122.600;2022-11-20T07:31:12;19.52;;;12.75;;
1360;SDS011;674;45.552;-122.600;2022-11-20T07:33:45;14.52;;;10.95;;
1360;SDS011;674;45.552;-122.600;2022-11-20T07:36:13;15.82;;;10.80;;
1360;SDS011;674;45.552;-122.600;2022-11-20T07:38:42;15.18;;;11.32;;
1360;SDS011;674;45.552;-122.600;2022-11-20T07:41:10;16.08;;;11.55;;
1360;SDS011;674;45.552;-122.600;2022-11-20T07:43:39;13.68;;;10.95;;
1360;SDS011;674;45.552;-122.600;2022-11-20T07:46:07;16.75;;;10.73;;
1360;SDS011;674;45.552;-122.600;2022-11-20T07:48:35;15.77;;;9.95;;
1360;SDS011;674;45.552;-122.600;2022-11-20T07:51:04;13.85;;;10.45;;
1360;SDS011;674;45.552;-122.600;2022-11-20T07:53:33;14.30;;;10.45;;
1360;SDS011;674;45.552;-122.600;2022-11-20T07:56:01;14.02;;;10.80;;
1360;SDS011;674;45.552;-122.600;2022-11-20T07:58:30;14.75;;;10.73;;
1360;SDS011;674;45.552;-122.600;2022-11-20T08:01:05;14.65;;;11.40;;
1360;SDS011;674;45.552;-122.600;2022-11-20T08:03:35;15.25;;;10.45;;
1360;SDS011;674;45.552;-122.600;2022-11-20T08:06:06;15.07;;;11.88;;
1360;SDS011;674;45.552;-122.600;2022-11-20T08:08:35;16.20;;;11.50;;
1360;SDS011;674;45.552;-122.600;2022-11-20T08:11:08;16.55;;;11.18;;
1360;SDS011;674;45.552;-122.600;2022-11-20T08:13:55;16.63;;;10.70;;
1360;SDS011;674;45.552;-122.600;2022-11-20T08:16:43;17.92;;;11.43;;
1360;SDS011;674;45.552;-122.600;2022-11-20T08:19:18;16.17;;;11.18;;
1360;SDS011;674;45.552;-122.600;2022-11-20T08:21:47;15.40;;;11.70;;
1360;SDS011;674;45.552;-122.600;2022-11-20T08:24:16;14.18;;;11.02;;
1360;SDS011;674;45.552;-122.600;2022-11-20T08:26:44;14.48;;;11.52;;
1360;SDS011;674;45.552;-122.600;2022-11-20T08:29:12;13.20;;;10.77;;
1360;SDS011;674;45.552;-122.600;2022-11-20T08:31:41;13.40;;;10.60;;
1360;SDS011;674;45.552;-122.600;2022-11-20T08:34:09;17.95;;;10.88;;
1360;SDS011;674;45.552;-122.600;2022-11-20T08:36:44;14.70;;;10.85;;
1360;SDS011;674;45.552;-122.600;2022-11-20T08:39:12;16.00;;;11.43;;
1360;SDS011;674;45.552;-122.600;2022-11-20T08:41:41;15.18;;;11.20;;
1360;SDS011;674;45.552;-122.600;2022-11-20T08:44:10;14.38;;;10.90;;
1360;SDS011;674;45.552;-122.600;2022-11-20T08:46:39;16.60;;;11.73;;
1360;SDS011;674;45.552;-122.600;2022-11-20T08:49:09;15.18;;;10.10;;
1360;SDS011;674;45.552;-122.600;2022-11-20T08:51:39;14.93;;;10.18;;
1360;SDS011;674;45.552;-122.600;2022-11-20T08:54:08;19.77;;;12.02;;
1360;SDS011;674;45.552;-122.600;2022-11-20T08:56:37;14.80;;;10.18;;
1360;SDS011;674;45.552;-122.600;2022-11-20T08:59:05;16.02;;;9.93;;
1360;SDS011;674;45.552;-122.600;2022-11-20T09:01:53;15.13;;;10.32;;
1360;SDS011;674;45.552;-122.600;2022-11-20T09:04:22;12.60;;;10.13;;
1360;SDS011;674;45.552;-122.600;2022-11-20T09:06:50;15.20;;;9.30;;
1360;SDS011;674;45.552;-122.600;2022-11-20T09:09:19;13.68;;;10.65;;
1360;SDS011;674;45.552;-122.600;2022-11-20T09:11:48;17.30;;;11.57;;
1360;SDS011;674;45.552;-122.600;2022-11-20T09:14:17;14.77;;;10.88;;
1360;SDS011;674;45.552;-122.600;2022-11-20T09:16:45;14.45;;;10.63;;
1360;SDS011;674;45.552;-122.600;2022-11-20T09:19:14;14.40;;;10.30;;
1360;SDS011;674;45.552;-122.600;2022-11-20T09:22:02;15.57;;;10.85;;
1360;SDS011;674;45.552;-122.600;2022-11-20T09:24:31;12.50;;;10.48;;
1360;SDS011;674;45.552;-122.600;2022-11-20T09:27:01;15.70;;;9.80;;
1360;SDS011;674;45.552;-122.600;2022-11-20T09:29:30;15.45;;;11.57;;
1360;SDS011;674;45.552;-122.600;2022-11-20T09:31:59;15.25;;;11.25;;
1360;SDS011;674;45.552;-122.600;2022-11-20T09:34:27;14.63;;;10.75;;
1360;SDS011;674;45.552;-122.600;2022-11-20T09:36:56;13.73;;;10.20;;
1360;SDS011;674;45.552;-122.600;2022-11-20T09:39:30;12.27;;;9.80;;
1360;SDS011;674;45.552;-122.600;2022-11-20T09:44:58;13.40;;;9.85;;
1360;SDS011;674;45.552;-122.600;2022-11-20T09:55:55;13.18;;;9.93;;
1360;SDS011;674;45.552;-122.600;2022-11-20T09:58:29;14.40;;;10.25;;
1360;SDS011;674;45.552;-122.600;2022-11-20T10:01:16;16.58;;;12.32;;
1360;SDS011;674;45.552;-122.600;2022-11-20T10:03:57;13.98;;;10.35;;
1360;SDS011;674;45.552;-122.600;2022-11-20T10:09:50;15.48;;;10.68;;
1360;SDS011;674;45.552;-122.600;2022-11-20T10:12:26;14.40;;;11.05;;
1360;SDS011;674;45.552;-122.600;2022-11-20T10:17:50;15.27;;;11.90;;
1360;SDS011;674;45.552;-122.600;2022-11-20T10:20:43;14.77;;;10.95;;
1360;SDS011;674;45.552;-122.600;2022-11-20T10:26:04;13.60;;;10.77;;
1360;SDS011;674;45.552;-122.600;2022-11-20T10:29:04;16.10;;;10.18;;
1360;SDS011;674;45.552;-122.600;2022-11-20T10:31:54;13.95;;;11.02;;
1360;SDS011;674;45.552;-122.600;2022-11-20T10:34:34;14.48;;;9.93;;
1360;SDS011;674;45.552;-122.600;2022-11-20T10:37:25;16.35;;;12.32;;
1360;SDS011;674;45.552;-122.600;2022-11-20T10:39:57;16.48;;;10.85;;
1360;SDS011;674;45.552;-122.600;2022-11-20T10:43:21;12.98;;;10.77;;
1360;SDS011;674;45.552;-122.600;2022-11-20T10:46:08;15.73;;;11.30;;
1360;SDS011;674;45.552;-122.600;2022-11-20T10:48:39;15.40;;;11.05;;
1360;SDS011;674;45.552;-122.600;2022-11-20T10:54:18;15.35;;;11.25;;
1360;SDS011;674;45.552;-122.600;2022-11-20T10:57:10;16.30;;;11.90;;
1360;SDS011;674;45.552;-122.600;2022-11-20T11:00:07;16.70;;;11.77;;
1360;SDS011;674;45.552;-122.600;2022-11-20T11:02:39;13.63;;;11.05;;
1360;SDS011;674;45.552;-122.600;2022-11-20T11:05:23;16.63;;;12.07;;
1360;SDS011;674;45.552;-122.600;2022-11-20T11:07:56;15.88;;;11.85;;
1360;SDS011;674;45.552;-122.600;2022-11-20T11:13:22;17.60;;;12.27;;
1360;SDS011;674;45.552;-122.600;2022-11-20T11:15:55;18.20;;;12.80;;
1360;SDS011;674;45.552;-122.600;2022-11-20T11:18:28;16.65;;;12.75;;
1360;SDS011;674;45.552;-122.600;2022-11-20T11:20:59;18.77;;;12.15;;
1360;SDS011;674;45.552;-122.600;2022-11-20T11:26:27;17.13;;;12.52;;
1360;SDS011;674;45.552;-122.600;2022-11-20T11:28:58;17.23;;;13.10;;
1360;SDS011;674;45.552;-122.600;2022-11-20T11:31:29;17.80;;;11.75;;
1360;SDS011;674;45.552;-122.600;2022-11-20T11:34:12;15.20;;;12.55;;
1360;SDS011;674;45.552;-122.600;2022-11-20T11:36:49;18.40;;;12.40;;
1360;SDS011;674;45.552;-122.600;2022-11-20T11:39:25;17.60;;;12.65;;
1360;SDS011;674;45.552;-122.600;2022-11-20T11:41:54;17.63;;;12.70;;
1360;SDS011;674;45.552;-122.600;2022-11-20T11:44:31;15.05;;;11.75;;
1360;SDS011;674;45.552;-122.600;2022-11-20T11:47:26;18.95;;;13.32;;
1360;SDS011;674;45.552;-122.600;2022-11-20T11:55:09;17.13;;;12.55;;
1360;SDS011;674;45.552;-122.600;2022-11-20T12:00:21;17.35;;;12.63;;
1360;SDS011;674;45.552;-122.600;2022-11-20T12:05:43;18.02;;;13.75;;
1360;SDS011;674;45.552;-122.600;2022-11-20T12:11:13;18.17;;;12.15;;
1360;SDS011;674;45.552;-122.600;2022-11-20T12:17:01;16.73;;;13.77;;
1360;SDS011;674;45.552;-122.600;2022-11-20T12:19:31;17.35;;;13.80;;
1360;SDS011;674;45.552;-122.600;2022-11-20T12:30:20;17.30;;;12.20;;
1360;SDS011;674;45.552;-122.600;2022-11-20T12:50:50;24.52;;;15.23;;
1360;SDS011;674;45.552;-122.600;2022-11-20T13:07:28;19.50;;;14.32;;
1360;SDS011;674;45.552;-122.600;2022-11-20T13:09:58;19.67;;;13.20;;
1360;SDS011;674;45.552;-122.600;2022-11-20T13:12:32;17.33;;;13.07;;
1360;SDS011;674;45.552;-122.600;2022-11-20T13:18:04;19.00;;;14.77;;
1360;SDS011;674;45.552;-122.600;2022-11-20T13:20:36;19.00;;;14.75;;
1360;SDS011;674;45.552;-122.600;2022-11-20T13:23:11;20.27;;;15.35;;
1360;SDS011;674;45.552;-122.600;2022-11-20T13:25:50;20.10;;;14.43;;
1360;SDS011;674;45.552;-122.600;2022-11-20T13:30:51;19.15;;;14.45;;
1360;SDS011;674;45.552;-122.600;2022-11-20T13:36:04;18.65;;;14.50;;
1360;SDS011;674;45.552;-122.600;2022-11-20T13:38:50;18.90;;;14.85;;
1360;SDS011;674;45.552;-122.600;2022-11-20T13:41:31;21.45;;;16.10;;
1360;SDS011;674;45.552;-122.600;2022-11-20T13:46:56;18.55;;;14.05;;
1360;SDS011;674;45.552;-122.600;2022-11-20T14:04:05;20.27;;;13.52;;
1360;SDS011;674;45.552;-122.600;2022-11-20T14:06:41;19.73;;;14.38;;
1360;SDS011;674;45.552;-122.600;2022-11-20T14:09:11;20.80;;;14.10;;
1360;SDS011;674;45.552;-122.600;2022-11-20T14:11:51;19.85;;;15.02;;
1360;SDS011;674;45.552;-122.600;2022-11-20T14:14:21;20.98;;;15.20;;
1360;SDS011;674;45.552;-122.600;2022-11-20T14:16:52;19.63;;;14.02;;
1360;SDS011;674;45.552;-122.600;2022-11-20T14:19:31;19.25;;;14.82;;
1360;SDS011;674;45.552;-122.600;2022-11-20T14:22:07;17.17;;;14.02;;
1360;SDS011;674;45.552;-122.600;2022-11-20T14:24:47;21.77;;;15.13;;
1360;SDS011;674;45.552;-122.600;2022-11-20T14:27:27;17.70;;;14.13;;
1360;SDS011;674;45.552;-122.600;2022-11-20T14:29:56;19.13;;;14.82;;
1360;SDS011;674;45.552;-122.600;2022-11-20T14:32:28;20.45;;;15.02;;
1360;SDS011;674;45.552;-122.600;2022-11-20T14:34:59;19.13;;;15.60;;
1360;SDS011;674;45.552;-122.600;2022-11-20T14:37:39;21.08;;;14.23;;
1360;SDS011;674;45.552;-122.600;2022-11-20T14:42:56;18.33;;;14.70;;
1360;SDS011;674;45.552;-122.600;2022-11-20T14:45:26;24.23;;;15.95;;
1360;SDS011;674;45.552;-122.600;2022-11-20T14:47:55;20.08;;;14.90;;
1360;SDS011;674;45.552;-122.600;2022-11-20T14:50:26;18.40;;;14.40;;
1360;SDS011;674;45.552;-122.600;2022-11-20T14:52:56;21.50;;;14.93;;
1360;SDS011;674;45.552;-122.600;2022-11-20T14:55:33;20.13;;;15.10;;
1360;SDS011;674;45.552;-122.600;2022-11-20T14:58:04;21.98;;;15.13;;
1360;SDS011;674;45.552;-122.600;2022-11-20T15:00:34;18.38;;;14.23;;
1360;SDS011;674;45.552;-122.600;2022-11-20T15:03:13;22.10;;;14.13;;
1360;SDS011;674;45.552;-122.600;2022-11-20T15:05:47;21.90;;;16.00;;
1360;SDS011;674;45.552;-122.600;2022-11-20T15:08:17;18.27;;;14.13;;
1360;SDS011;674;45.552;-122.600;2022-11-20T15:10:46;17.90;;;15.00;;
1360;SDS011;674;45.552;-122.600;2022-11-20T15:16:00;22.58;;;15.73;;
1360;SDS011;674;45.552;-122.600;2022-11-20T15:18:36;20.02;;;16.13;;
1360;SDS011;674;45.552;-122.600;2022-11-20T15:21:10;19.42;;;14.93;;
1360;SDS011;674;45.552;-122.600;2022-11-20T15:23:41;21.70;;;14.40;;
1360;SDS011;674;45.552;-122.600;2022-11-20T15:26:10;22.70;;;14.73;;
1360;SDS011;674;45.552;-122.600;2022-11-20T15:28:46;19.20;;;13.90;;
1360;SDS011;674;45.552;-122.600;2022-11-20T15:31:21;18.58;;;15.25;;
1360;SDS011;674;45.552;-122.600;2022-11-20T15:33:50;19.63;;;15.43;;
1360;SDS011;674;45.552;-122.600;2022-11-20T15:36:19;19.73;;;14.63;;
1360;SDS011;674;45.552;-122.600;2022-11-20T15:38:48;24.35;;;18.58;;
1360;SDS011;674;45.552;-122.600;2022-11-20T15:41:16;19.25;;;14.25;;
1360;SDS011;674;45.552;-122.600;2022-11-20T15:43:44;21.08;;;15.50;;
1360;SDS011;674;45.552;-122.600;2022-11-20T15:46:16;20.80;;;15.30;;
1360;SDS011;674;45.552;-122.600;2022-11-20T15:48:56;19.33;;;15.20;;
1360;SDS011;674;45.552;-122.600;2022-11-20T15:51:28;23.02;;;15.43;;
1360;SDS011;674;45.552;-122.600;2022-11-20T15:53:57;20.83;;;16.00;;
1360;SDS011;674;45.552;-122.600;2022-11-20T15:56:26;20.63;;;15.40;;
1360;SDS011;674;45.552;-122.600;2022-11-20T15:58:54;20.92;;;17.08;;
1360;SDS011;674;45.552;-122.600;2022-11-20T16:01:23;24.05;;;16.58;;
1360;SDS011;674;45.552;-122.600;2022-11-20T16:03:51;21.30;;;16.15;;
1360;SDS011;674;45.552;-122.600;2022-11-20T16:06:20;18.55;;;14.40;;
1360;SDS011;674;45.552;-122.600;2022-11-20T16:08:48;22.30;;;15.35;;
1360;SDS011;674;45.552;-122.600;2022-11-20T16:11:17;24.13;;;16.45;;
1360;SDS011;674;45.552;-122.600;2022-11-20T16:13:45;24.73;;;15.63;;
1360;SDS011;674;45.552;-122.600;2022-11-20T16:16:33;19.80;;;15.45;;
1360;SDS011;674;45.552;-122.600;2022-11-20T16:19:03;21.67;;;16.00;;
1360;SDS011;674;45.552;-122.600;2022-11-20T16:21:31;18.23;;;14.75;;
1360;SDS011;674;45.552;-122.600;2022-11-20T16:24:01;24.75;;;14.95;;
1360;SDS011;674;45.552;-122.600;2022-11-20T16:26:31;21.00;;;15.27;;
1360;SDS011;674;45.552;-122.600;2022-11-20T16:29:00;20.95;;;15.90;;
1360;SDS011;674;45.552;-122.600;2022-11-20T16:31:30;21.73;;;15.10;;
1360;SDS011;674;45.552;-122.600;2022-11-20T16:33:59;18.17;;;14.32;;
1360;SDS011;674;45.552;-122.600;2022-11-20T16:36:38;20.23;;;14.82;;
1360;SDS011;674;45.552;-122.600;2022-11-20T16:39:09;21.38;;;14.25;;
1360;SDS011;674;45.552;-122.600;2022-11-20T16:41:38;19.52;;;14.52;;
1360;SDS011;674;45.552;-122.600;2022-11-20T16:44:07;20.38;;;13.70;;
1360;SDS011;674;45.552;-122.600;2022-11-20T16:46:37;19.35;;;13.25;;
1360;SDS011;674;45.552;-122.600;2022-11-20T16:49:10;18.08;;;13.65;;
1360;SDS011;674;45.552;-122.600;2022-11-20T16:51:40;19.85;;;13.55;;
1360;SDS011;674;45.552;-122.600;2022-11-20T16:54:09;17.52;;;13.80;;
1360;SDS011;674;45.552;-122.600;2022-11-20T16:56:44;20.33;;;14.98;;